Ludington, MI

3:17 AM EST on November 17, 2019 (GMT -0500)
Mason County

Weather History for KLDM - June, 2019

Change the Weather History Date:

Monday, June 3, 2019

  Actual Average Record
Temperature  
Mean Temperature 46 °F -  
Max Temperature 61 °F 70 °F 87 °F (1948)
Min Temperature 31 °F 46 °F 31 °F (2019)
Degree Days  
Heating Degree Days 19    
Moisture  
Dew Point 34 °F    
Average Humidity 64    
Maximum Humidity 99    
Minimum Humidity 29    
Precipitation  
Precipitation 0.00 in - - ()
Sea Level Pressure  
Sea Level Pressure 30.12 in    
Wind  
Wind Speed 2 mph (WNW)    
Max Wind Speed 10 mph    
Max Gust Speed 16 mph    
Visibility 10 miles    
Events      
Averages and records for this station are not official NWS values.
T = Trace of Precipitation, MM = Missing Value Source: NWS Daily Summary

Daily Weather History Graph

Daily Weather History Graph

Search for Another Location

Airport or City:

Astronomy

Jun. 03, 2019 Rise Set
Actual Time 6:05 AM EDT 9:22 PM EDT
Civil Twilight 5:29 AM EDT 9:58 PM EDT
Nautical Twilight 4:43 AM EDT 10:44 PM EDT
Astronomical Twilight 3:46 AM EDT 11:41 PM EDT
Moon 6:27 AM EDT (6/3) 9:46 PM EDT (6/3)
Length of Visible Light 16h 28m
Length of Day
15h 17m
New Moon, 0% of the Moon is Illuminated
Jun 3
New Moon
Jun 10
First Quarter
Jun 17
Full
Jun 25
Last Quarter
Jul 2
New

Hourly Weather History & Observations

Time (EDT) Temp. Dew Point Humidity Pressure Visibility Wind Dir Wind Speed Gust Speed Precip Events Conditions
12:15 AM 40.5 °F 34.7 °F 80% 30.06 in 10.0 mi Calm Calm - N/A   Clear
12:16 AM 40.5 °F 34.7 °F 80% 30.06 in 10.0 mi Calm Calm - N/A   Clear
12:35 AM 40.1 °F 33.8 °F 78% 30.06 in 10.0 mi Calm Calm - N/A   Clear
12:37 AM 40.1 °F 34.0 °F 79% 30.06 in 10.0 mi Calm Calm - N/A   Clear
12:55 AM 39.4 °F 34.9 °F 84% 30.06 in 10.0 mi Calm Calm - N/A   Clear
12:56 AM 39.2 °F 34.7 °F 84% 30.06 in 10.0 mi Calm Calm - N/A   Clear
1:16 AM 37.6 °F 34.2 °F 87% 30.07 in 10.0 mi Calm Calm - N/A   Clear
1:35 AM 37.0 °F 34.5 °F 91% 30.07 in 10.0 mi Calm Calm - N/A   Clear
1:36 AM 37.0 °F 34.3 °F 90% 30.07 in 10.0 mi Calm Calm - N/A   Clear
1:55 AM 36.1 °F 33.8 °F 91% 30.07 in 10.0 mi Calm Calm - N/A   Clear
2:16 AM 35.8 °F 34.2 °F 94% 30.08 in 10.0 mi Calm Calm - N/A   Clear
2:35 AM 35.2 °F 33.1 °F 92% 30.07 in 10.0 mi Calm Calm - N/A   Clear
2:36 AM 35.1 °F 32.9 °F 92% 30.07 in 10.0 mi Calm Calm - N/A   Clear
2:56 AM 35.4 °F 33.1 °F 91% 30.08 in 10.0 mi Calm Calm - N/A   Clear
3:15 AM 35.1 °F 33.8 °F 95% 30.08 in 10.0 mi Calm Calm - N/A   Clear
3:16 AM 34.9 °F 33.8 °F 96% 30.08 in 10.0 mi Calm Calm - N/A   Clear
3:35 AM 34.7 °F 32.9 °F 93% 30.08 in 10.0 mi Calm Calm - N/A   Clear
3:36 AM 34.9 °F 33.1 °F 93% 30.08 in 10.0 mi Calm Calm - N/A   Clear
3:56 AM 34.9 °F 33.4 °F 94% 30.09 in 10.0 mi Calm Calm - N/A   Clear
4:15 AM 34.9 °F 33.6 °F 95% 30.10 in 10.0 mi Calm Calm - N/A   Clear
4:16 AM 35.1 °F 33.6 °F 94% 30.10 in 10.0 mi Calm Calm - N/A   Clear
4:35 AM 34.7 °F 33.3 °F 94% 30.10 in 10.0 mi Calm Calm - N/A   Clear
4:56 AM 33.6 °F 32.7 °F 96% 30.10 in 10.0 mi Calm Calm - N/A   Clear
5:15 AM 33.1 °F 32.2 °F 96% 30.10 in 10.0 mi Calm Calm - N/A   Clear
5:16 AM 32.9 °F 32.2 °F 97% 30.10 in 10.0 mi Calm Calm - N/A   Clear
5:35 AM 31.6 °F 31.1 °F 98% 30.11 in 7.0 mi Calm Calm - N/A   Clear
5:37 AM 31.5 °F 30.9 °F 98% 30.11 in 7.0 mi Calm Calm - N/A   Clear
5:56 AM 32.4 °F 31.6 °F 97% 30.11 in 10.0 mi Calm Calm - N/A   Clear
6:15 AM 32.0 °F 31.6 °F 99% 30.11 in 10.0 mi Calm Calm - N/A   Clear
6:16 AM 32.0 °F 31.6 °F 99% 30.11 in 10.0 mi Calm Calm - N/A   Clear
6:35 AM 32.0 °F 31.5 °F 98% 30.12 in 7.0 mi Calm Calm - N/A   Clear
6:37 AM 32.2 °F 31.8 °F 99% 30.12 in 7.0 mi Calm Calm - N/A   Clear
6:55 AM 33.8 °F 33.1 °F 97% 30.12 in 10.0 mi Calm Calm - N/A   Clear
6:56 AM 34.0 °F 33.1 °F 96% 30.12 in 10.0 mi Calm Calm - N/A   Clear
7:15 AM 34.9 °F 34.0 °F 97% 30.12 in 10.0 mi Calm Calm - N/A   Clear
7:17 AM 34.9 °F 34.0 °F 97% 30.12 in 10.0 mi Calm Calm - N/A   Clear
7:35 AM 38.1 °F 36.9 °F 95% 30.13 in 10.0 mi Calm Calm - N/A   Clear
7:36 AM 38.3 °F 37.0 °F 95% 30.13 in 10.0 mi Calm Calm - N/A   Clear
7:55 AM 43.0 °F 39.9 °F 89% 30.14 in 10.0 mi Calm Calm - N/A   Clear
8:15 AM 46.2 °F 40.3 °F 80% 30.15 in 10.0 mi Calm Calm - N/A   Clear
8:16 AM 46.6 °F 40.1 °F 78% 30.15 in 10.0 mi Calm Calm - N/A   Clear
8:35 AM 49.3 °F 35.6 °F 59% 30.15 in 10.0 mi Calm Calm - N/A   Clear
8:36 AM 49.3 °F 35.6 °F 59% 30.15 in 10.0 mi Calm Calm - N/A   Clear
8:56 AM 50.7 °F 33.6 °F 52% 30.16 in 10.0 mi North 3.5 mph - N/A   Clear
9:15 AM 51.1 °F 32.5 °F 49% 30.17 in 10.0 mi Calm Calm - N/A   Clear
9:36 AM 52.3 °F 32.7 °F 47% 30.16 in 10.0 mi Calm Calm - N/A   Clear
9:55 AM 54.0 °F 33.8 °F 46% 30.16 in 10.0 mi SE 3.5 mph - N/A   Clear
9:56 AM 53.8 °F 33.4 °F 46% 30.16 in 10.0 mi SE 3.5 mph - N/A   Clear
10:16 AM 54.5 °F 33.6 °F 45% 30.16 in 10.0 mi NNW 4.6 mph - N/A   Clear
10:35 AM 54.7 °F 34.5 °F 47% 30.17 in 10.0 mi WSW 4.6 mph - N/A   Clear
10:36 AM 54.5 °F 34.7 °F 47% 30.17 in 10.0 mi WSW 4.6 mph - N/A   Clear
10:55 AM 55.2 °F 36.1 °F 49% 30.17 in 10.0 mi SW 4.6 mph - N/A   Clear
10:56 AM 55.4 °F 36.0 °F 48% 30.17 in 10.0 mi WSW 5.8 mph - N/A   Clear
11:16 AM 55.4 °F 35.1 °F 46% 30.17 in 10.0 mi WSW 4.6 mph - N/A   Clear
11:35 AM 55.8 °F 34.5 °F 45% 30.17 in 10.0 mi WSW 5.8 mph - N/A   Clear
11:36 AM 55.9 °F 34.5 °F 45% 30.17 in 10.0 mi WSW 4.6 mph - N/A   Clear
11:55 AM 56.1 °F 34.5 °F 44% 30.17 in 10.0 mi West 8.1 mph - N/A   Clear
12:15 PM 57.7 °F 34.9 °F 42% 30.17 in 10.0 mi WSW 5.8 mph - N/A   Clear
12:16 PM 57.7 °F 35.4 °F 43% 30.17 in 10.0 mi WNW 4.6 mph - N/A   Clear
12:35 PM 57.9 °F 35.2 °F 43% 30.17 in 10.0 mi West 9.2 mph - N/A   Clear
12:55 PM 59.0 °F 34.7 °F 40% 30.17 in 10.0 mi West 5.8 mph - N/A   Clear
12:56 PM 59.4 °F 35.1 °F 40% 30.17 in 10.0 mi West 8.1 mph - N/A   Clear
1:15 PM 59.7 °F 33.1 °F 37% 30.16 in 10.0 mi WNW 8.1 mph - N/A   Clear
1:16 PM 59.7 °F 32.7 °F 36% 30.16 in 10.0 mi NW 4.6 mph - N/A   Clear
1:35 PM 59.7 °F 31.3 °F 34% 30.15 in 10.0 mi Calm Calm - N/A   Clear
1:37 PM 59.4 °F 30.7 °F 34% 30.15 in 10.0 mi WNW 5.8 mph - N/A   Clear
1:55 PM 60.8 °F 32.5 °F 35% 30.15 in 10.0 mi NNW 8.1 mph 16.1 mph N/A   Clear
1:56 PM 61.0 °F 32.9 °F 35% 30.15 in 10.0 mi NW 9.2 mph 16.1 mph N/A   Clear
2:15 PM 61.0 °F 31.5 °F 33% 30.15 in 10.0 mi NW 6.9 mph - N/A   Clear
2:17 PM 61.0 °F 31.3 °F 33% 30.15 in 10.0 mi NNW 9.2 mph - N/A   Clear
2:35 PM 61.0 °F 30.7 °F 32% 30.14 in 10.0 mi NNW 10.4 mph - N/A   Clear
2:36 PM 60.8 °F 30.4 °F 32% 30.14 in 10.0 mi NW 9.2 mph - N/A   Clear
2:55 PM 61.2 °F 30.4 °F 31% 30.13 in 10.0 mi NNW 6.9 mph - N/A   Clear
3:15 PM 61.3 °F 29.5 °F 30% 30.13 in 10.0 mi NNW 5.8 mph - N/A   Clear
3:16 PM 61.7 °F 30.0 °F 30% 30.13 in 10.0 mi NNW 5.8 mph - N/A   Clear
3:35 PM 61.3 °F 28.2 °F 29% 30.12 in 10.0 mi NNE 3.5 mph - N/A   Clear
3:37 PM 61.5 °F 28.9 °F 29% 30.12 in 10.0 mi NW 9.2 mph - N/A   Clear
3:55 PM 61.0 °F 29.7 °F 31% 30.12 in 10.0 mi NW 6.9 mph - N/A   Clear
3:56 PM 60.6 °F 29.3 °F 31% 30.12 in 10.0 mi NW 6.9 mph - N/A   Clear
4:15 PM 60.8 °F 27.9 °F 29% 30.13 in 10.0 mi NNW 10.4 mph - N/A   Clear
4:17 PM 61.0 °F 28.2 °F 29% 30.13 in 10.0 mi NW 9.2 mph - N/A   Clear
4:35 PM 59.9 °F 27.5 °F 29% 30.14 in 10.0 mi NW 8.1 mph - N/A   Scattered Clouds
4:36 PM 59.9 °F 27.7 °F 29% 30.14 in 10.0 mi NW 9.2 mph - N/A   Scattered Clouds
4:55 PM 58.6 °F 28.2 °F 31% 30.13 in 10.0 mi NW 6.9 mph - N/A   Overcast
4:56 PM 58.8 °F 28.8 °F 32% 30.13 in 10.0 mi WNW 6.9 mph - N/A   Overcast
5:16 PM 57.4 °F 36.5 °F 46% 30.13 in 10.0 mi WNW 5.8 mph - N/A   Overcast
5:35 PM 56.8 °F 35.2 °F 44% 30.14 in 10.0 mi WNW 5.8 mph - N/A   Mostly Cloudy
5:36 PM 56.8 °F 35.1 °F 44% 30.14 in 10.0 mi WNW 4.6 mph - N/A   Mostly Cloudy
5:55 PM 57.9 °F 36.5 °F 45% 30.14 in 10.0 mi West 6.9 mph - N/A   Scattered Clouds
5:56 PM 58.1 °F 36.3 °F 44% 30.14 in 10.0 mi WNW 5.8 mph - N/A   Scattered Clouds
6:15 PM 55.4 °F 36.7 °F 49% 30.13 in 10.0 mi West 4.6 mph - N/A   Scattered Clouds
6:16 PM 55.2 °F 36.5 °F 49% 30.13 in 10.0 mi WNW 4.6 mph - N/A   Scattered Clouds
6:35 PM 55.6 °F 37.2 °F 50% 30.12 in 10.0 mi West 3.5 mph - N/A   Clear
6:36 PM 55.4 °F 37.2 °F 50% 30.12 in 10.0 mi West 3.5 mph - N/A   Clear
6:55 PM 56.3 °F 37.8 °F 50% 30.12 in 10.0 mi West 4.6 mph - N/A   Clear
7:15 PM 53.1 °F 37.8 °F 56% 30.11 in 10.0 mi WSW 6.9 mph - N/A   Scattered Clouds
7:16 PM 52.9 °F 37.4 °F 56% 30.11 in 10.0 mi WSW 6.9 mph - N/A   Scattered Clouds
7:35 PM 51.3 °F 36.0 °F 56% 30.11 in 10.0 mi Calm Calm - N/A   Mostly Cloudy
7:55 PM 51.8 °F 37.0 °F 57% 30.10 in 10.0 mi Calm Calm - N/A   Overcast
8:16 PM 52.2 °F 38.1 °F 59% 30.10 in 10.0 mi Calm Calm - N/A   Overcast
8:35 PM 51.6 °F 37.2 °F 58% 30.10 in 10.0 mi Calm Calm - N/A   Overcast
8:55 PM 50.4 °F 38.8 °F 65% 30.09 in 10.0 mi Calm Calm - N/A   Overcast
8:56 PM 50.4 °F 39.0 °F 65% 30.09 in 10.0 mi Calm Calm - N/A   Overcast
9:15 PM 50.0 °F 39.6 °F 67% 30.09 in 10.0 mi Calm Calm - N/A   Overcast
9:35 PM 48.6 °F 39.6 °F 71% 30.08 in 10.0 mi Calm Calm - N/A   Mostly Cloudy
9:37 PM 48.4 °F 39.7 °F 72% 30.08 in 10.0 mi Calm Calm - N/A   Mostly Cloudy
9:55 PM 46.9 °F 40.3 °F 78% 30.09 in 10.0 mi Calm Calm - N/A   Scattered Clouds
9:56 PM 46.8 °F 40.1 °F 78% 30.09 in 10.0 mi Calm Calm - N/A   Scattered Clouds
10:15 PM 45.5 °F 41.0 °F 84% 30.08 in 10.0 mi Calm Calm - N/A   Scattered Clouds
10:36 PM 44.2 °F 40.3 °F 86% 30.09 in 10.0 mi Calm Calm - N/A   Scattered Clouds
10:55 PM 43.9 °F 40.5 °F 88% 30.09 in 10.0 mi Calm Calm - N/A   Scattered Clouds
11:15 PM 46.6 °F 41.4 °F 82% 30.08 in 10.0 mi Calm Calm - N/A   Clear
11:16 PM 46.6 °F 41.2 °F 81% 30.08 in 10.0 mi Calm Calm - N/A   Clear
11:35 PM 45.3 °F 41.4 °F 86% 30.09 in 10.0 mi Calm Calm - N/A   Clear
11:36 PM 45.1 °F 41.4 °F 87% 30.09 in 10.0 mi Calm Calm - N/A   Clear
11:55 PM 43.0 °F 40.5 °F 91% 30.09 in 10.0 mi Calm Calm - N/A   Clear